ADDS TAF Data INFO
IDs: Format: Raw Decoded Include METARs

Data at: 2048 UTC 15 Aug 2018

KTEB 151951Z 25007KT 10SM SCT060 32/19 A2989 RMK AO2 SLP121 T03170189

KTEB 151936Z 1520/1624 29010G16KT P6SM FEW050
  FM152300 28007KT P6SM FEW050 FEW250
  FM160800 VRB03KT P6SM FEW050 FEW250
  FM161500 28007KT P6SM FEW050 FEW250


KEWR 151951Z 27012KT 10SM SCT055 BKN250 32/18 A2990 RMK AO2 SLP126 T03220183

KEWR 151936Z 1520/1624 29010G14KT P6SM FEW050 SCT250
  FM160000 28009KT P6SM FEW050 FEW250
  FM160800 VRB05KT P6SM FEW050 FEW250
  FM161500 28008KT P6SM FEW050 FEW250


KMMU 151945Z 32005KT 10SM SCT060 30/21 A2993

No TAF found for KMMU

KABE 151951Z 26007KT 240V300 10SM FEW060 32/20 A2995 RMK AO2 SLP137 T03170200

KABE 151735Z 1518/1618 28008KT P6SM FEW040
  FM152300 26005KT P6SM SCT060
  TEMPO 1608/1612 5SM BR
  FM161200 VRB02KT P6SM FEW250


KAVP 151954Z 23006KT 8SM FEW070 28/20 A2997 RMK AO2 SLP139 T02780200

KAVP 151725Z 1518/1618 29008KT P6SM SCT050 BKN250
  FM160000 VRB02KT P6SM BKN250
  TEMPO 1609/1612 3SM BR
  FM161300 26005KT P6SM SCT045


KFWN 151953Z AUTO VRB06KT 10SM CLR 30/20 A2993 RMK AO2 SLP132 T03000200

No TAF found for KFWN

KSWF 151945Z 28010KT 20SM SCT050 30/20 A2992

KSWF 151936Z 1520/1624 26010KT P6SM FEW050
  FM160300 27003KT P6SM SKC
  FM161400 29008KT P6SM SCT250 AMD NOT SKED


K12N 151954Z AUTO VRB03KT 31/21 A2995 RMK AO1 SLP130 T03060206

No TAF found for K12N